createdAt,value
2022-12-28T06:49:33.131Z,0.90
2022-12-28T06:52:34.912Z,1.10
2022-12-28T06:55:36.601Z,0.73
2022-12-28T06:58:38.900Z,0.80
2022-12-28T07:01:44.627Z,0.90
2022-12-28T07:04:46.577Z,1.02
2022-12-28T07:07:48.360Z,0.85
2022-12-28T07:10:50.236Z,0.70
2022-12-28T07:13:51.888Z,0.95
2022-12-28T07:16:53.632Z,0.98
2022-12-28T07:19:55.613Z,1.02
2022-12-28T07:22:57.362Z,0.88
2022-12-28T07:26:05.977Z,0.75
2022-12-28T07:29:08.594Z,1.05
2022-12-28T07:32:10.253Z,0.88
2022-12-28T07:35:11.915Z,0.60
2022-12-28T07:38:19.451Z,1.30
2022-12-28T07:41:27.954Z,0.60
2022-12-28T07:44:30.780Z,1.10
2022-12-28T07:47:33.999Z,0.60
2022-12-28T07:50:37.956Z,0.80
2022-12-28T07:53:41.246Z,0.70
2022-12-28T07:59:43.433Z,0.95
2022-12-28T08:02:45.094Z,0.90
2022-12-28T08:05:46.875Z,1.20
2022-12-28T08:08:51.849Z,0.90
2022-12-28T08:11:53.515Z,0.60
2022-12-28T08:14:55.692Z,0.80
2022-12-28T08:17:57.504Z,0.70
2022-12-28T08:21:19.251Z,0.70
2022-12-28T08:24:21.003Z,0.70
2022-12-28T08:27:22.627Z,0.60
2022-12-28T08:30:24.355Z,0.90
2022-12-28T08:33:26.542Z,0.80
2022-12-28T08:36:28.934Z,0.90
2022-12-28T08:39:30.557Z,0.50
2022-12-28T08:42:32.502Z,0.60
2022-12-28T08:45:34.189Z,0.98
2022-12-28T08:48:36.222Z,0.90
2022-12-28T08:51:41.302Z,0.82
2022-12-28T08:54:43.014Z,0.55
2022-12-28T08:57:44.779Z,0.60
2022-12-28T09:00:46.573Z,0.80
2022-12-28T09:03:50.436Z,0.82
2022-12-28T09:06:52.075Z,0.60
2022-12-28T09:09:54.030Z,0.70
2022-12-28T09:12:55.680Z,0.75
2022-12-28T09:15:59.841Z,0.70
2022-12-28T09:19:02.839Z,0.52
2022-12-28T09:22:04.501Z,0.90
2022-12-28T09:25:06.437Z,0.60
2022-12-28T09:28:08.262Z,0.90
2022-12-28T09:31:10.275Z,0.90
2022-12-28T09:37:34.919Z,0.60
2022-12-28T09:40:38.184Z,1.20
2022-12-28T09:43:42.322Z,0.70
2022-12-28T09:47:21.307Z,0.85
2022-12-28T09:50:30.008Z,0.70
2022-12-28T09:53:34.333Z,0.63
2022-12-28T09:56:38.007Z,0.60
2022-12-28T09:59:39.947Z,0.70
2022-12-28T10:02:42.751Z,1.02
2022-12-28T10:05:44.960Z,0.88
2022-12-28T10:08:51.264Z,0.70
2022-12-28T10:11:52.982Z,1.00
2022-12-28T10:14:55.135Z,0.85
2022-12-28T10:17:56.944Z,0.70
2022-12-28T10:20:59.613Z,0.70
2022-12-28T10:24:30.865Z,1.30
2022-12-28T10:30:32.838Z,0.60
2022-12-28T10:33:39.816Z,0.70
2022-12-28T10:36:41.975Z,0.93
2022-12-28T10:40:03.688Z,0.82
2022-12-28T10:43:10.857Z,1.10
2022-12-28T10:46:20.107Z,0.93
2022-12-28T10:49:22.721Z,0.73
2022-12-28T10:52:26.294Z,0.70
2022-12-28T10:55:33.147Z,0.70
2022-12-28T10:58:35.236Z,0.70
2022-12-28T11:01:37.692Z,1.10
2022-12-28T11:04:54.336Z,0.80
2022-12-28T11:08:14.695Z,0.70
2022-12-28T11:11:20.905Z,0.60
2022-12-28T11:14:32.170Z,0.90
2022-12-28T11:17:37.573Z,0.50
2022-12-28T11:20:44.334Z,0.93
2022-12-28T11:23:47.862Z,0.60
2022-12-28T11:26:50.677Z,0.75
2022-12-28T11:29:54.340Z,0.63
2022-12-28T11:32:59.274Z,0.70
2022-12-28T11:36:05.691Z,0.65
2022-12-28T11:39:26.956Z,1.00
2022-12-28T11:42:41.376Z,1.10
2022-12-28T11:45:53.323Z,0.80
2022-12-28T11:49:02.096Z,0.80
2022-12-28T11:52:20.755Z,1.05
2022-12-28T11:55:33.571Z,1.08
2022-12-28T11:58:45.741Z,0.90
2022-12-28T12:01:49.358Z,0.80
2022-12-28T12:04:51.108Z,1.02
2022-12-28T12:07:52.872Z,2.58
2022-12-28T12:11:28.829Z,0.93
2022-12-28T12:14:39.227Z,0.70
2022-12-28T12:17:55.059Z,0.63
2022-12-28T12:21:06.791Z,0.68
2022-12-28T12:24:26.779Z,0.57
2022-12-28T12:27:39.525Z,0.70
2022-12-28T12:30:43.958Z,0.88
2022-12-28T12:33:50.895Z,0.70
2022-12-28T12:37:08.670Z,0.75
2022-12-28T12:40:30.393Z,0.60
2022-12-28T12:43:39.160Z,0.65
2022-12-28T12:47:06.927Z,0.60
2022-12-28T12:50:31.499Z,0.65
2022-12-28T12:54:13.036Z,0.55
2022-12-28T12:57:35.549Z,0.60
2022-12-28T13:00:49.615Z,0.50
2022-12-28T13:03:53.374Z,0.63
2022-12-28T13:07:00.631Z,0.60
2022-12-28T13:10:04.385Z,0.50
2022-12-28T13:13:06.404Z,0.60
2022-12-28T13:16:17.182Z,0.60
2022-12-28T13:19:23.270Z,0.65
2022-12-28T13:22:28.879Z,0.52
2022-12-28T13:25:33.423Z,0.50
2022-12-28T13:28:36.919Z,0.60
2022-12-28T13:31:40.869Z,0.70
2022-12-28T13:34:49.509Z,0.70
2022-12-28T13:37:59.784Z,0.77
2022-12-28T13:41:03.263Z,0.80
2022-12-28T13:44:21.321Z,0.80
2022-12-28T13:47:33.809Z,1.00
2022-12-28T13:50:39.251Z,1.00
2022-12-28T13:53:45.375Z,0.85
2022-12-28T13:56:47.099Z,0.73
2022-12-28T13:59:50.984Z,1.10
2022-12-28T14:02:55.306Z,1.10
2022-12-28T14:06:02.073Z,1.20
2022-12-28T14:09:05.801Z,1.20
2022-12-28T14:12:08.660Z,1.38
2022-12-28T14:15:12.144Z,1.58
2022-12-28T14:18:16.194Z,1.48
2022-12-28T14:21:32.435Z,1.17
2022-12-28T14:24:34.165Z,1.60
2022-12-28T14:27:41.189Z,1.40
2022-12-28T14:30:43.229Z,1.50
2022-12-28T14:33:55.836Z,1.45
2022-12-28T14:36:58.969Z,1.45
2022-12-28T14:40:05.300Z,1.50
2022-12-28T14:43:18.715Z,1.58
2022-12-28T14:46:38.377Z,2.03
2022-12-28T14:49:42.608Z,1.80
2022-12-28T14:52:48.562Z,1.80
2022-12-28T14:55:53.558Z,1.60
2022-12-28T14:58:59.358Z,1.35
2022-12-28T15:02:01.226Z,1.77
2022-12-28T15:05:03.816Z,2.33
2022-12-28T15:08:06.153Z,2.08
2022-12-28T15:11:09.918Z,1.85
2022-12-28T15:14:12.056Z,2.08
2022-12-28T15:17:14.085Z,2.00
2022-12-28T15:20:17.607Z,2.30
2022-12-28T15:23:19.433Z,2.47
2022-12-28T15:26:23.702Z,2.50
2022-12-28T15:29:39.994Z,2.40
2022-12-28T15:32:47.174Z,2.28
2022-12-28T15:35:48.815Z,2.13
2022-12-28T15:38:50.636Z,2.40
2022-12-28T15:41:52.295Z,2.60
2022-12-28T15:44:54.152Z,2.20
2022-12-28T15:47:55.926Z,2.67
2022-12-28T15:50:57.782Z,2.65
2022-12-28T15:53:59.975Z,2.60
2022-12-28T15:57:01.836Z,2.55
2022-12-28T16:00:04.272Z,3.10
2022-12-28T16:03:06.232Z,2.55
2022-12-28T16:06:08.033Z,2.40
2022-12-28T16:09:10.279Z,2.58
2022-12-28T16:12:17.035Z,2.60
2022-12-28T16:15:18.696Z,2.67
2022-12-28T16:18:20.648Z,2.38
2022-12-28T16:21:22.533Z,2.78
2022-12-28T16:24:24.228Z,2.95
2022-12-28T16:27:25.880Z,2.47
2022-12-28T16:30:28.068Z,2.75
2022-12-28T16:33:29.888Z,2.38
2022-12-28T16:36:31.992Z,3.00
2022-12-28T16:39:33.680Z,2.72
2022-12-28T16:42:35.395Z,2.70
2022-12-28T16:45:38.997Z,2.90
2022-12-28T16:48:41.399Z,2.47
2022-12-28T16:51:45.324Z,2.75
2022-12-28T16:54:47.005Z,2.92
2022-12-28T16:57:48.708Z,3.47
